Terminal Aerodrome Forecast
Issued by NWS

Home | Current Version | Previous Version | Text Only | Print | Product List | Glossary On
Versions: 1 2 3 4 5 6 7 8 9 10 11 12 13 14 15 16
539
FTUS41 KBGM 231724
TAFITH
TAF
KITH 231724Z 2318/2418 23008KT P6SM SCT040 BKN080
     FM240000 20005KT P6SM BKN060
     FM241300 19012G22KT P6SM SKC=

USA.gov is the U.S. government's official web portal to all federal, state and local government web resources and services.